sensor_id;sensor_type;location;lat;lon;timestamp;P1;durP1;ratioP1;P2;durP2;ratioP2
69036;SDS011;58547;51.690;5.186;2022-07-18T00:01:38;7.20;;;3.60;;
69036;SDS011;58547;51.690;5.186;2022-07-18T00:04:04;7.38;;;3.13;;
69036;SDS011;58547;51.690;5.186;2022-07-18T00:06:29;7.35;;;3.15;;
69036;SDS011;58547;51.690;5.186;2022-07-18T00:08:54;6.63;;;3.75;;
69036;SDS011;58547;51.690;5.186;2022-07-18T00:11:20;4.55;;;2.97;;
69036;SDS011;58547;51.690;5.186;2022-07-18T00:13:46;7.10;;;3.58;;
69036;SDS011;58547;51.690;5.186;2022-07-18T00:16:12;10.20;;;3.45;;
69036;SDS011;58547;51.690;5.186;2022-07-18T00:18:37;10.98;;;3.30;;
69036;SDS011;58547;51.690;5.186;2022-07-18T00:21:03;5.45;;;2.83;;
69036;SDS011;58547;51.690;5.186;2022-07-18T00:23:28;5.43;;;3.35;;
69036;SDS011;58547;51.690;5.186;2022-07-18T00:25:54;6.30;;;3.60;;
69036;SDS011;58547;51.690;5.186;2022-07-18T00:33:10;7.88;;;3.47;;
69036;SDS011;58547;51.690;5.186;2022-07-18T00:35:35;8.02;;;3.03;;
69036;SDS011;58547;51.690;5.186;2022-07-18T00:38:00;5.38;;;3.25;;
69036;SDS011;58547;51.690;5.186;2022-07-18T00:40:27;5.68;;;3.40;;
69036;SDS011;58547;51.690;5.186;2022-07-18T00:42:52;8.18;;;3.38;;
69036;SDS011;58547;51.690;5.186;2022-07-18T00:52:34;9.38;;;3.03;;
69036;SDS011;58547;51.690;5.186;2022-07-18T00:55:01;6.88;;;3.08;;
69036;SDS011;58547;51.690;5.186;2022-07-18T00:57:28;4.85;;;3.35;;
69036;SDS011;58547;51.690;5.186;2022-07-18T00:59:54;7.15;;;3.00;;
69036;SDS011;58547;51.690;5.186;2022-07-18T01:02:38;5.63;;;3.13;;
69036;SDS011;58547;51.690;5.186;2022-07-18T01:05:05;5.97;;;3.40;;
69036;SDS011;58547;51.690;5.186;2022-07-18T01:07:32;6.00;;;3.28;;
69036;SDS011;58547;51.690;5.186;2022-07-18T01:09:59;7.97;;;3.00;;
69036;SDS011;58547;51.690;5.186;2022-07-18T01:12:25;7.75;;;3.25;;
69036;SDS011;58547;51.690;5.186;2022-07-18T01:14:51;5.90;;;2.83;;
69036;SDS011;58547;51.690;5.186;2022-07-18T01:17:18;6.78;;;3.22;;
69036;SDS011;58547;51.690;5.186;2022-07-18T01:19:44;5.65;;;3.33;;
69036;SDS011;58547;51.690;5.186;2022-07-18T01:22:10;5.70;;;3.10;;
69036;SDS011;58547;51.690;5.186;2022-07-18T01:24:37;7.15;;;3.10;;
69036;SDS011;58547;51.690;5.186;2022-07-18T01:27:04;4.70;;;2.88;;
69036;SDS011;58547;51.690;5.186;2022-07-18T01:29:30;5.47;;;3.25;;
69036;SDS011;58547;51.690;5.186;2022-07-18T01:31:55;6.88;;;3.00;;
69036;SDS011;58547;51.690;5.186;2022-07-18T01:36:47;7.60;;;3.13;;
69036;SDS011;58547;51.690;5.186;2022-07-18T01:39:12;6.78;;;2.85;;
69036;SDS011;58547;51.690;5.186;2022-07-18T01:44:03;4.65;;;2.33;;
69036;SDS011;58547;51.690;5.186;2022-07-18T01:48:54;5.68;;;3.00;;
69036;SDS011;58547;51.690;5.186;2022-07-18T01:53:52;8.37;;;3.30;;
69036;SDS011;58547;51.690;5.186;2022-07-18T01:56:26;4.78;;;2.55;;
69036;SDS011;58547;51.690;5.186;2022-07-18T02:01:17;6.03;;;3.15;;
69036;SDS011;58547;51.690;5.186;2022-07-18T02:06:08;7.07;;;3.33;;
69036;SDS011;58547;51.690;5.186;2022-07-18T02:10:58;6.10;;;2.80;;
69036;SDS011;58547;51.690;5.186;2022-07-18T02:15:49;5.75;;;2.67;;
69036;SDS011;58547;51.690;5.186;2022-07-18T02:23:05;6.43;;;3.05;;
69036;SDS011;58547;51.690;5.186;2022-07-18T02:25:32;6.97;;;2.92;;
69036;SDS011;58547;51.690;5.186;2022-07-18T02:30:23;5.47;;;3.03;;
69036;SDS011;58547;51.690;5.186;2022-07-18T02:35:14;5.73;;;2.83;;
69036;SDS011;58547;51.690;5.186;2022-07-18T02:40:07;8.52;;;3.58;;
69036;SDS011;58547;51.690;5.186;2022-07-18T02:42:33;7.38;;;2.80;;
69036;SDS011;58547;51.690;5.186;2022-07-18T02:47:24;8.10;;;3.43;;
69036;SDS011;58547;51.690;5.186;2022-07-18T02:52:14;7.20;;;3.27;;
69036;SDS011;58547;51.690;5.186;2022-07-18T02:57:05;10.00;;;3.97;;
69036;SDS011;58547;51.690;5.186;2022-07-18T03:01:57;5.40;;;3.33;;
69036;SDS011;58547;51.690;5.186;2022-07-18T03:06:48;6.07;;;3.00;;
69036;SDS011;58547;51.690;5.186;2022-07-18T03:09:15;11.20;;;3.42;;
69036;SDS011;58547;51.690;5.186;2022-07-18T03:11:41;8.50;;;3.63;;
69036;SDS011;58547;51.690;5.186;2022-07-18T03:14:07;7.55;;;3.00;;
69036;SDS011;58547;51.690;5.186;2022-07-18T03:18:58;9.43;;;3.47;;
69036;SDS011;58547;51.690;5.186;2022-07-18T03:23:49;6.03;;;3.50;;
69036;SDS011;58547;51.690;5.186;2022-07-18T03:28:40;6.57;;;3.43;;
69036;SDS011;58547;51.690;5.186;2022-07-18T03:33:31;8.33;;;3.20;;
69036;SDS011;58547;51.690;5.186;2022-07-18T03:38:21;10.85;;;3.53;;
69036;SDS011;58547;51.690;5.186;2022-07-18T03:43:12;6.17;;;3.57;;
69036;SDS011;58547;51.690;5.186;2022-07-18T03:48:02;8.40;;;3.67;;
69036;SDS011;58547;51.690;5.186;2022-07-18T03:52:53;6.93;;;3.13;;
69036;SDS011;58547;51.690;5.186;2022-07-18T03:57:44;7.15;;;3.75;;
69036;SDS011;58547;51.690;5.186;2022-07-18T04:00:11;6.85;;;3.95;;
69036;SDS011;58547;51.690;5.186;2022-07-18T04:02:44;7.78;;;3.95;;
69036;SDS011;58547;51.690;5.186;2022-07-18T04:05:11;5.30;;;3.30;;
69036;SDS011;58547;51.690;5.186;2022-07-18T04:07:37;9.52;;;4.10;;
69036;SDS011;58547;51.690;5.186;2022-07-18T04:12:29;9.05;;;4.60;;
69036;SDS011;58547;51.690;5.186;2022-07-18T04:17:20;8.30;;;3.63;;
69036;SDS011;58547;51.690;5.186;2022-07-18T04:19:46;6.82;;;3.28;;
69036;SDS011;58547;51.690;5.186;2022-07-18T04:24:36;6.57;;;4.33;;
69036;SDS011;58547;51.690;5.186;2022-07-18T04:29:27;6.18;;;3.65;;
69036;SDS011;58547;51.690;5.186;2022-07-18T04:31:53;6.70;;;3.67;;
69036;SDS011;58547;51.690;5.186;2022-07-18T04:36:44;8.67;;;4.37;;
69036;SDS011;58547;51.690;5.186;2022-07-18T04:41:35;8.87;;;4.43;;
69036;SDS011;58547;51.690;5.186;2022-07-18T04:44:00;9.10;;;4.43;;
69036;SDS011;58547;51.690;5.186;2022-07-18T04:48:50;9.13;;;4.67;;
69036;SDS011;58547;51.690;5.186;2022-07-18T04:53:41;11.32;;;4.75;;
69036;SDS011;58547;51.690;5.186;2022-07-18T04:58:32;7.67;;;4.07;;
69036;SDS011;58547;51.690;5.186;2022-07-18T05:00:57;8.10;;;4.80;;
69036;SDS011;58547;51.690;5.186;2022-07-18T05:05:48;10.70;;;4.20;;
69036;SDS011;58547;51.690;5.186;2022-07-18T05:08:13;10.00;;;3.85;;
69036;SDS011;58547;51.690;5.186;2022-07-18T05:13:04;8.75;;;4.20;;
69036;SDS011;58547;51.690;5.186;2022-07-18T05:17:55;7.70;;;4.27;;
69036;SDS011;58547;51.690;5.186;2022-07-18T05:22:47;7.35;;;4.50;;
69036;SDS011;58547;51.690;5.186;2022-07-18T05:27:38;11.40;;;4.78;;
69036;SDS011;58547;51.690;5.186;2022-07-18T05:32:31;8.57;;;4.57;;
69036;SDS011;58547;51.690;5.186;2022-07-18T05:37:21;9.05;;;4.38;;
69036;SDS011;58547;51.690;5.186;2022-07-18T05:42:12;11.25;;;5.05;;
69036;SDS011;58547;51.690;5.186;2022-07-18T05:47:03;8.48;;;4.93;;
69036;SDS011;58547;51.690;5.186;2022-07-18T05:51:54;11.20;;;6.00;;
69036;SDS011;58547;51.690;5.186;2022-07-18T05:56:46;12.57;;;6.05;;
69036;SDS011;58547;51.690;5.186;2022-07-18T05:59:12;9.32;;;4.80;;
69036;SDS011;58547;51.690;5.186;2022-07-18T06:01:41;11.65;;;5.15;;
69036;SDS011;58547;51.690;5.186;2022-07-18T06:06:32;8.80;;;5.63;;
69036;SDS011;58547;51.690;5.186;2022-07-18T06:11:22;10.55;;;5.57;;
69036;SDS011;58547;51.690;5.186;2022-07-18T06:18:39;14.43;;;6.03;;
69036;SDS011;58547;51.690;5.186;2022-07-18T06:23:30;13.55;;;6.80;;
69036;SDS011;58547;51.690;5.186;2022-07-18T06:28:21;19.75;;;6.90;;
69036;SDS011;58547;51.690;5.186;2022-07-18T06:33:12;24.85;;;8.00;;
69036;SDS011;58547;51.690;5.186;2022-07-18T06:38:04;12.88;;;6.47;;
69036;SDS011;58547;51.690;5.186;2022-07-18T06:42:55;14.88;;;5.55;;
69036;SDS011;58547;51.690;5.186;2022-07-18T06:50:12;20.03;;;6.60;;
69036;SDS011;58547;51.690;5.186;2022-07-18T06:52:39;12.38;;;7.25;;
69036;SDS011;58547;51.690;5.186;2022-07-18T06:55:06;13.65;;;7.40;;
69036;SDS011;58547;51.690;5.186;2022-07-18T06:57:32;15.77;;;6.60;;
69036;SDS011;58547;51.690;5.186;2022-07-18T06:59:57;17.63;;;6.97;;
69036;SDS011;58547;51.690;5.186;2022-07-18T07:04:48;13.33;;;6.57;;
69036;SDS011;58547;51.690;5.186;2022-07-18T07:12:04;14.27;;;6.73;;
69036;SDS011;58547;51.690;5.186;2022-07-18T07:14:30;11.23;;;5.80;;
69036;SDS011;58547;51.690;5.186;2022-07-18T07:16:55;16.70;;;6.45;;
69036;SDS011;58547;51.690;5.186;2022-07-18T07:24:11;10.93;;;5.30;;
69036;SDS011;58547;51.690;5.186;2022-07-18T07:29:02;8.20;;;4.65;;
69036;SDS011;58547;51.690;5.186;2022-07-18T07:31:27;11.60;;;5.55;;
69036;SDS011;58547;51.690;5.186;2022-07-18T07:33:53;8.57;;;4.40;;
69036;SDS011;58547;51.690;5.186;2022-07-18T07:36:18;9.88;;;4.45;;
69036;SDS011;58547;51.690;5.186;2022-07-18T07:38:43;10.68;;;4.45;;
69036;SDS011;58547;51.690;5.186;2022-07-18T07:41:09;12.35;;;4.45;;
69036;SDS011;58547;51.690;5.186;2022-07-18T07:43:34;15.48;;;3.65;;
69036;SDS011;58547;51.690;5.186;2022-07-18T07:46:03;13.82;;;4.20;;
69036;SDS011;58547;51.690;5.186;2022-07-18T07:48:28;7.43;;;3.75;;
69036;SDS011;58547;51.690;5.186;2022-07-18T07:50:54;8.27;;;3.45;;
69036;SDS011;58547;51.690;5.186;2022-07-18T07:53:19;9.02;;;3.75;;
69036;SDS011;58547;51.690;5.186;2022-07-18T07:55:45;8.93;;;3.58;;
69036;SDS011;58547;51.690;5.186;2022-07-18T07:58:10;7.70;;;3.50;;
69036;SDS011;58547;51.690;5.186;2022-07-18T08:00:36;12.13;;;3.08;;
69036;SDS011;58547;51.690;5.186;2022-07-18T08:03:03;6.68;;;2.85;;
69036;SDS011;58547;51.690;5.186;2022-07-18T08:05:31;8.02;;;2.80;;
69036;SDS011;58547;51.690;5.186;2022-07-18T08:07:58;10.45;;;3.15;;
69036;SDS011;58547;51.690;5.186;2022-07-18T08:10:24;12.15;;;3.20;;
69036;SDS011;58547;51.690;5.186;2022-07-18T08:12:51;6.85;;;2.90;;
69036;SDS011;58547;51.690;5.186;2022-07-18T08:15:17;9.38;;;2.72;;
69036;SDS011;58547;51.690;5.186;2022-07-18T08:17:45;7.63;;;3.30;;
69036;SDS011;58547;51.690;5.186;2022-07-18T08:20:13;9.43;;;3.25;;
69036;SDS011;58547;51.690;5.186;2022-07-18T08:22:52;10.10;;;3.00;;
69036;SDS011;58547;51.690;5.186;2022-07-18T08:25:22;8.18;;;3.05;;
69036;SDS011;58547;51.690;5.186;2022-07-18T08:27:48;5.50;;;2.50;;
69036;SDS011;58547;51.690;5.186;2022-07-18T08:30:14;13.65;;;3.13;;
69036;SDS011;58547;51.690;5.186;2022-07-18T08:32:46;6.20;;;2.55;;
69036;SDS011;58547;51.690;5.186;2022-07-18T08:35:12;7.20;;;3.05;;
69036;SDS011;58547;51.690;5.186;2022-07-18T08:37:38;7.97;;;2.90;;
69036;SDS011;58547;51.690;5.186;2022-07-18T08:40:07;6.97;;;3.10;;
69036;SDS011;58547;51.690;5.186;2022-07-18T08:42:33;9.95;;;2.70;;
69036;SDS011;58547;51.690;5.186;2022-07-18T08:45:00;8.07;;;2.70;;
69036;SDS011;58547;51.690;5.186;2022-07-18T08:47:29;6.05;;;2.60;;
69036;SDS011;58547;51.690;5.186;2022-07-18T08:49:56;5.72;;;2.38;;
69036;SDS011;58547;51.690;5.186;2022-07-18T08:52:23;5.32;;;2.30;;
69036;SDS011;58547;51.690;5.186;2022-07-18T08:54:48;8.07;;;2.80;;
69036;SDS011;58547;51.690;5.186;2022-07-18T08:57:15;4.05;;;2.53;;
69036;SDS011;58547;51.690;5.186;2022-07-18T08:59:41;10.52;;;2.28;;
69036;SDS011;58547;51.690;5.186;2022-07-18T09:02:07;6.13;;;2.83;;
69036;SDS011;58547;51.690;5.186;2022-07-18T09:04:34;5.57;;;2.53;;
69036;SDS011;58547;51.690;5.186;2022-07-18T09:07:01;6.50;;;2.30;;
69036;SDS011;58547;51.690;5.186;2022-07-18T09:09:36;7.78;;;3.35;;
69036;SDS011;58547;51.690;5.186;2022-07-18T09:12:05;12.38;;;3.22;;
69036;SDS011;58547;51.690;5.186;2022-07-18T09:14:38;5.07;;;2.47;;
69036;SDS011;58547;51.690;5.186;2022-07-18T09:17:06;9.25;;;2.60;;
69036;SDS011;58547;51.690;5.186;2022-07-18T09:19:32;10.57;;;2.70;;
69036;SDS011;58547;51.690;5.186;2022-07-18T09:22:11;6.97;;;2.47;;
69036;SDS011;58547;51.690;5.186;2022-07-18T09:27:39;7.28;;;2.50;;
69036;SDS011;58547;51.690;5.186;2022-07-18T09:30:20;10.60;;;2.65;;
69036;SDS011;58547;51.690;5.186;2022-07-18T09:35:29;12.32;;;2.75;;
69036;SDS011;58547;51.690;5.186;2022-07-18T09:38:06;6.05;;;2.22;;
69036;SDS011;58547;51.690;5.186;2022-07-18T09:40:37;4.25;;;2.28;;
69036;SDS011;58547;51.690;5.186;2022-07-18T09:43:04;7.25;;;2.20;;
69036;SDS011;58547;51.690;5.186;2022-07-18T09:48:05;8.48;;;2.50;;
69036;SDS011;58547;51.690;5.186;2022-07-18T09:53:09;9.90;;;2.50;;
69036;SDS011;58547;51.690;5.186;2022-07-18T09:55:44;10.02;;;2.42;;
69036;SDS011;58547;51.690;5.186;2022-07-18T09:58:14;9.43;;;2.60;;
69036;SDS011;58547;51.690;5.186;2022-07-18T10:00:43;4.07;;;2.20;;
69036;SDS011;58547;51.690;5.186;2022-07-18T10:03:08;5.97;;;2.55;;
69036;SDS011;58547;51.690;5.186;2022-07-18T10:05:36;10.07;;;2.75;;
69036;SDS011;58547;51.690;5.186;2022-07-18T10:08:04;3.90;;;2.03;;
69036;SDS011;58547;51.690;5.186;2022-07-18T10:10:32;6.18;;;2.15;;
69036;SDS011;58547;51.690;5.186;2022-07-18T10:12:58;5.53;;;2.10;;
69036;SDS011;58547;51.690;5.186;2022-07-18T10:15:26;4.88;;;2.30;;
69036;SDS011;58547;51.690;5.186;2022-07-18T10:17:57;6.65;;;2.72;;
69036;SDS011;58547;51.690;5.186;2022-07-18T10:20:27;5.72;;;2.40;;
69036;SDS011;58547;51.690;5.186;2022-07-18T10:23:18;5.22;;;2.05;;
69036;SDS011;58547;51.690;5.186;2022-07-18T10:31:26;5.27;;;2.17;;
69036;SDS011;58547;51.690;5.186;2022-07-18T10:34:11;6.80;;;2.22;;
69036;SDS011;58547;51.690;5.186;2022-07-18T10:36:38;7.80;;;2.50;;
69036;SDS011;58547;51.690;5.186;2022-07-18T10:57:34;6.88;;;2.47;;
69036;SDS011;58547;51.690;5.186;2022-07-18T11:00:10;4.10;;;2.40;;
69036;SDS011;58547;51.690;5.186;2022-07-18T11:03:08;5.20;;;2.50;;
69036;SDS011;58547;51.690;5.186;2022-07-18T11:05:36;11.88;;;2.85;;
69036;SDS011;58547;51.690;5.186;2022-07-18T11:21:16;8.80;;;2.05;;
69036;SDS011;58547;51.690;5.186;2022-07-18T11:23:47;6.55;;;2.10;;
69036;SDS011;58547;51.690;5.186;2022-07-18T11:26:18;6.97;;;2.30;;
69036;SDS011;58547;51.690;5.186;2022-07-18T11:28:48;6.18;;;2.30;;
69036;SDS011;58547;51.690;5.186;2022-07-18T11:31:21;8.07;;;2.17;;
69036;SDS011;58547;51.690;5.186;2022-07-18T11:33:47;7.10;;;2.05;;
69036;SDS011;58547;51.690;5.186;2022-07-18T11:36:15;5.88;;;2.08;;
69036;SDS011;58547;51.690;5.186;2022-07-18T11:38:54;7.05;;;1.92;;
69036;SDS011;58547;51.690;5.186;2022-07-18T11:41:22;6.75;;;2.03;;
69036;SDS011;58547;51.690;5.186;2022-07-18T11:43:49;5.10;;;1.92;;
69036;SDS011;58547;51.690;5.186;2022-07-18T11:46:19;6.55;;;2.55;;
69036;SDS011;58547;51.690;5.186;2022-07-18T11:48:48;3.17;;;1.60;;
69036;SDS011;58547;51.690;5.186;2022-07-18T11:51:22;5.50;;;1.90;;
69036;SDS011;58547;51.690;5.186;2022-07-18T11:53:51;4.78;;;2.05;;
69036;SDS011;58547;51.690;5.186;2022-07-18T11:56:18;6.03;;;2.10;;
69036;SDS011;58547;51.690;5.186;2022-07-18T11:58:44;4.93;;;2.45;;
69036;SDS011;58547;51.690;5.186;2022-07-18T12:01:11;5.95;;;1.92;;
69036;SDS011;58547;51.690;5.186;2022-07-18T12:03:39;5.47;;;2.30;;
69036;SDS011;58547;51.690;5.186;2022-07-18T12:06:10;4.47;;;1.90;;
69036;SDS011;58547;51.690;5.186;2022-07-18T12:16:32;4.75;;;2.08;;
69036;SDS011;58547;51.690;5.186;2022-07-18T12:21:40;6.20;;;2.28;;
69036;SDS011;58547;51.690;5.186;2022-07-18T12:32:39;5.50;;;2.25;;
69036;SDS011;58547;51.690;5.186;2022-07-18T12:35:13;3.10;;;2.13;;
69036;SDS011;58547;51.690;5.186;2022-07-18T12:37:41;2.70;;;1.90;;
69036;SDS011;58547;51.690;5.186;2022-07-18T12:40:15;11.18;;;2.38;;
69036;SDS011;58547;51.690;5.186;2022-07-18T12:42:41;5.45;;;2.08;;
69036;SDS011;58547;51.690;5.186;2022-07-18T12:45:10;4.13;;;1.88;;
69036;SDS011;58547;51.690;5.186;2022-07-18T12:47:37;5.82;;;2.63;;
69036;SDS011;58547;51.690;5.186;2022-07-18T12:50:06;6.20;;;2.17;;
69036;SDS011;58547;51.690;5.186;2022-07-18T12:52:32;5.32;;;2.40;;
69036;SDS011;58547;51.690;5.186;2022-07-18T12:54:58;7.10;;;2.83;;
69036;SDS011;58547;51.690;5.186;2022-07-18T12:57:24;5.80;;;2.17;;
69036;SDS011;58547;51.690;5.186;2022-07-18T12:59:50;6.45;;;2.50;;
69036;SDS011;58547;51.690;5.186;2022-07-18T13:02:16;5.28;;;2.40;;
69036;SDS011;58547;51.690;5.186;2022-07-18T13:04:42;4.22;;;2.40;;
69036;SDS011;58547;51.690;5.186;2022-07-18T13:07:08;5.07;;;1.92;;
69036;SDS011;58547;51.690;5.186;2022-07-18T13:09:33;7.28;;;2.30;;
69036;SDS011;58547;51.690;5.186;2022-07-18T13:11:59;8.93;;;2.22;;
69036;SDS011;58547;51.690;5.186;2022-07-18T13:14:25;3.65;;;1.90;;
69036;SDS011;58547;51.690;5.186;2022-07-18T13:16:51;6.75;;;2.05;;
69036;SDS011;58547;51.690;5.186;2022-07-18T13:19:17;7.15;;;2.33;;
69036;SDS011;58547;51.690;5.186;2022-07-18T13:21:44;4.70;;;2.35;;
69036;SDS011;58547;51.690;5.186;2022-07-18T13:24:10;6.78;;;2.58;;
69036;SDS011;58547;51.690;5.186;2022-07-18T13:26:36;3.53;;;2.20;;
69036;SDS011;58547;51.690;5.186;2022-07-18T13:29:02;5.82;;;2.03;;
69036;SDS011;58547;51.690;5.186;2022-07-18T13:31:29;7.97;;;3.00;;
69036;SDS011;58547;51.690;5.186;2022-07-18T13:33:54;4.85;;;2.03;;
69036;SDS011;58547;51.690;5.186;2022-07-18T13:36:20;4.68;;;2.30;;
69036;SDS011;58547;51.690;5.186;2022-07-18T13:38:45;4.03;;;1.90;;
69036;SDS011;58547;51.690;5.186;2022-07-18T13:41:11;4.68;;;1.98;;
69036;SDS011;58547;51.690;5.186;2022-07-18T13:43:37;6.95;;;2.00;;
69036;SDS011;58547;51.690;5.186;2022-07-18T13:46:06;9.20;;;2.85;;
69036;SDS011;58547;51.690;5.186;2022-07-18T13:48:32;3.97;;;1.90;;
69036;SDS011;58547;51.690;5.186;2022-07-18T13:50:58;4.88;;;2.10;;
69036;SDS011;58547;51.690;5.186;2022-07-18T13:53:23;4.65;;;1.98;;
69036;SDS011;58547;51.690;5.186;2022-07-18T13:55:48;4.50;;;2.15;;
69036;SDS011;58547;51.690;5.186;2022-07-18T13:58:14;5.40;;;2.00;;
69036;SDS011;58547;51.690;5.186;2022-07-18T14:00:39;5.43;;;2.25;;
69036;SDS011;58547;51.690;5.186;2022-07-18T14:03:05;5.03;;;2.25;;
69036;SDS011;58547;51.690;5.186;2022-07-18T14:05:33;7.57;;;2.00;;
69036;SDS011;58547;51.690;5.186;2022-07-18T14:07:59;5.38;;;2.17;;
69036;SDS011;58547;51.690;5.186;2022-07-18T14:10:24;6.03;;;1.85;;
69036;SDS011;58547;51.690;5.186;2022-07-18T14:12:50;4.18;;;2.00;;
69036;SDS011;58547;51.690;5.186;2022-07-18T14:15:15;5.32;;;2.85;;
69036;SDS011;58547;51.690;5.186;2022-07-18T14:17:41;4.57;;;1.90;;
69036;SDS011;58547;51.690;5.186;2022-07-18T14:20:07;3.72;;;1.80;;
69036;SDS011;58547;51.690;5.186;2022-07-18T14:22:34;6.22;;;2.03;;
69036;SDS011;58547;51.690;5.186;2022-07-18T14:25:04;4.40;;;2.15;;
69036;SDS011;58547;51.690;5.186;2022-07-18T14:27:31;2.88;;;2.08;;
69036;SDS011;58547;51.690;5.186;2022-07-18T14:29:57;5.15;;;1.63;;
69036;SDS011;58547;51.690;5.186;2022-07-18T14:32:24;4.65;;;1.77;;
69036;SDS011;58547;51.690;5.186;2022-07-18T14:34:50;3.45;;;1.90;;
69036;SDS011;58547;51.690;5.186;2022-07-18T14:37:15;13.00;;;2.13;;
69036;SDS011;58547;51.690;5.186;2022-07-18T14:39:40;7.70;;;2.15;;
69036;SDS011;58547;51.690;5.186;2022-07-18T14:42:06;5.75;;;2.25;;
69036;SDS011;58547;51.690;5.186;2022-07-18T14:44:31;3.80;;;1.92;;
69036;SDS011;58547;51.690;5.186;2022-07-18T14:46:56;2.60;;;1.80;;
69036;SDS011;58547;51.690;5.186;2022-07-18T14:49:22;6.10;;;2.33;;
69036;SDS011;58547;51.690;5.186;2022-07-18T14:51:48;3.78;;;1.90;;
69036;SDS011;58547;51.690;5.186;2022-07-18T14:54:13;2.95;;;2.00;;
69036;SDS011;58547;51.690;5.186;2022-07-18T14:56:39;4.75;;;1.90;;
69036;SDS011;58547;51.690;5.186;2022-07-18T14:59:04;3.67;;;2.13;;
69036;SDS011;58547;51.690;5.186;2022-07-18T15:01:29;3.88;;;1.80;;
69036;SDS011;58547;51.690;5.186;2022-07-18T15:03:56;3.90;;;2.10;;
69036;SDS011;58547;51.690;5.186;2022-07-18T15:06:22;6.18;;;2.17;;
69036;SDS011;58547;51.690;5.186;2022-07-18T15:08:47;5.47;;;1.98;;
69036;SDS011;58547;51.690;5.186;2022-07-18T15:11:13;5.05;;;1.60;;
69036;SDS011;58547;51.690;5.186;2022-07-18T15:13:38;5.70;;;2.08;;
69036;SDS011;58547;51.690;5.186;2022-07-18T15:16:04;4.35;;;2.00;;
69036;SDS011;58547;51.690;5.186;2022-07-18T15:18:29;6.07;;;1.95;;
69036;SDS011;58547;51.690;5.186;2022-07-18T15:20:55;5.00;;;2.30;;
69036;SDS011;58547;51.690;5.186;2022-07-18T15:23:20;3.25;;;2.13;;
69036;SDS011;58547;51.690;5.186;2022-07-18T15:25:45;4.85;;;2.22;;
69036;SDS011;58547;51.690;5.186;2022-07-18T15:28:11;10.55;;;2.67;;
69036;SDS011;58547;51.690;5.186;2022-07-18T15:30:36;3.17;;;1.70;;
69036;SDS011;58547;51.690;5.186;2022-07-18T15:33:02;4.43;;;2.05;;
69036;SDS011;58547;51.690;5.186;2022-07-18T15:35:27;3.78;;;2.00;;
69036;SDS011;58547;51.690;5.186;2022-07-18T15:37:52;5.90;;;2.05;;
69036;SDS011;58547;51.690;5.186;2022-07-18T15:40:18;7.78;;;2.20;;
69036;SDS011;58547;51.690;5.186;2022-07-18T15:42:43;8.27;;;2.13;;
69036;SDS011;58547;51.690;5.186;2022-07-18T15:45:08;4.70;;;2.00;;
69036;SDS011;58547;51.690;5.186;2022-07-18T15:47:34;4.45;;;1.85;;
69036;SDS011;58547;51.690;5.186;2022-07-18T15:49:59;5.47;;;2.17;;
69036;SDS011;58547;51.690;5.186;2022-07-18T15:52:24;5.85;;;2.60;;
69036;SDS011;58547;51.690;5.186;2022-07-18T15:54:50;6.53;;;2.28;;
69036;SDS011;58547;51.690;5.186;2022-07-18T15:57:15;7.15;;;2.17;;
69036;SDS011;58547;51.690;5.186;2022-07-18T15:59:40;7.90;;;3.13;;
69036;SDS011;58547;51.690;5.186;2022-07-18T16:02:06;6.90;;;2.55;;
69036;SDS011;58547;51.690;5.186;2022-07-18T16:04:32;5.90;;;1.73;;
69036;SDS011;58547;51.690;5.186;2022-07-18T16:06:58;7.72;;;2.20;;
69036;SDS011;58547;51.690;5.186;2022-07-18T16:09:23;9.50;;;2.45;;
69036;SDS011;58547;51.690;5.186;2022-07-18T16:11:49;8.18;;;2.40;;
69036;SDS011;58547;51.690;5.186;2022-07-18T16:14:14;4.38;;;2.35;;
69036;SDS011;58547;51.690;5.186;2022-07-18T16:16:40;5.38;;;2.30;;
69036;SDS011;58547;51.690;5.186;2022-07-18T16:19:06;5.38;;;2.30;;
69036;SDS011;58547;51.690;5.186;2022-07-18T16:21:32;7.38;;;2.45;;
69036;SDS011;58547;51.690;5.186;2022-07-18T16:23:58;6.10;;;2.10;;
69036;SDS011;58547;51.690;5.186;2022-07-18T16:26:24;7.68;;;2.67;;
69036;SDS011;58547;51.690;5.186;2022-07-18T16:28:49;5.22;;;2.20;;
69036;SDS011;58547;51.690;5.186;2022-07-18T16:31:15;4.15;;;2.45;;
69036;SDS011;58547;51.690;5.186;2022-07-18T16:33:41;5.80;;;2.38;;
69036;SDS011;58547;51.690;5.186;2022-07-18T16:36:06;4.72;;;2.30;;
69036;SDS011;58547;51.690;5.186;2022-07-18T16:38:32;6.68;;;2.55;;
69036;SDS011;58547;51.690;5.186;2022-07-18T16:40:58;4.35;;;2.10;;
69036;SDS011;58547;51.690;5.186;2022-07-18T16:43:23;6.57;;;2.33;;
69036;SDS011;58547;51.690;5.186;2022-07-18T16:45:49;5.25;;;2.22;;
69036;SDS011;58547;51.690;5.186;2022-07-18T16:48:15;6.25;;;2.25;;
69036;SDS011;58547;51.690;5.186;2022-07-18T16:50:41;6.75;;;2.33;;
69036;SDS011;58547;51.690;5.186;2022-07-18T16:53:07;5.93;;;2.50;;
69036;SDS011;58547;51.690;5.186;2022-07-18T16:55:34;3.00;;;2.05;;
69036;SDS011;58547;51.690;5.186;2022-07-18T16:58:01;4.72;;;2.40;;
69036;SDS011;58547;51.690;5.186;2022-07-18T17:00:26;4.10;;;2.33;;
69036;SDS011;58547;51.690;5.186;2022-07-18T17:02:52;8.20;;;2.40;;
69036;SDS011;58547;51.690;5.186;2022-07-18T17:05:18;6.35;;;2.30;;
69036;SDS011;58547;51.690;5.186;2022-07-18T17:07:43;5.50;;;2.13;;
69036;SDS011;58547;51.690;5.186;2022-07-18T17:10:11;5.85;;;2.67;;
69036;SDS011;58547;51.690;5.186;2022-07-18T17:12:37;5.78;;;2.10;;
69036;SDS011;58547;51.690;5.186;2022-07-18T17:15:02;7.20;;;2.78;;
69036;SDS011;58547;51.690;5.186;2022-07-18T17:17:28;7.25;;;2.15;;
69036;SDS011;58547;51.690;5.186;2022-07-18T17:19:54;4.35;;;2.20;;
69036;SDS011;58547;51.690;5.186;2022-07-18T17:22:19;5.05;;;2.47;;
69036;SDS011;58547;51.690;5.186;2022-07-18T17:24:50;5.75;;;2.28;;
69036;SDS011;58547;51.690;5.186;2022-07-18T17:27:17;6.13;;;2.45;;
69036;SDS011;58547;51.690;5.186;2022-07-18T17:29:43;9.02;;;2.63;;
69036;SDS011;58547;51.690;5.186;2022-07-18T17:32:09;5.78;;;2.30;;
69036;SDS011;58547;51.690;5.186;2022-07-18T17:34:35;6.47;;;2.25;;
69036;SDS011;58547;51.690;5.186;2022-07-18T17:37:01;6.93;;;2.38;;
69036;SDS011;58547;51.690;5.186;2022-07-18T17:39:27;5.72;;;2.25;;
69036;SDS011;58547;51.690;5.186;2022-07-18T17:41:53;8.18;;;2.38;;
69036;SDS011;58547;51.690;5.186;2022-07-18T17:44:18;6.22;;;2.33;;
69036;SDS011;58547;51.690;5.186;2022-07-18T17:46:48;4.95;;;2.13;;
69036;SDS011;58547;51.690;5.186;2022-07-18T17:49:14;6.40;;;3.15;;
69036;SDS011;58547;51.690;5.186;2022-07-18T17:51:41;4.97;;;2.28;;
69036;SDS011;58547;51.690;5.186;2022-07-18T17:54:07;8.27;;;2.50;;
69036;SDS011;58547;51.690;5.186;2022-07-18T17:56:33;5.65;;;2.25;;
69036;SDS011;58547;51.690;5.186;2022-07-18T17:59:00;7.22;;;2.58;;
69036;SDS011;58547;51.690;5.186;2022-07-18T18:01:25;6.70;;;2.53;;
69036;SDS011;58547;51.690;5.186;2022-07-18T18:03:51;5.53;;;2.92;;
69036;SDS011;58547;51.690;5.186;2022-07-18T18:06:17;6.80;;;2.15;;
69036;SDS011;58547;51.690;5.186;2022-07-18T18:08:43;8.65;;;2.60;;
69036;SDS011;58547;51.690;5.186;2022-07-18T18:11:08;6.10;;;2.35;;
69036;SDS011;58547;51.690;5.186;2022-07-18T18:13:33;5.78;;;2.50;;
69036;SDS011;58547;51.690;5.186;2022-07-18T18:15:59;6.25;;;2.20;;
69036;SDS011;58547;51.690;5.186;2022-07-18T18:18:24;11.35;;;2.75;;
69036;SDS011;58547;51.690;5.186;2022-07-18T18:20:50;8.25;;;3.17;;
69036;SDS011;58547;51.690;5.186;2022-07-18T18:23:15;8.90;;;3.10;;
69036;SDS011;58547;51.690;5.186;2022-07-18T18:25:40;5.22;;;2.63;;
69036;SDS011;58547;51.690;5.186;2022-07-18T18:28:06;8.98;;;3.28;;
69036;SDS011;58547;51.690;5.186;2022-07-18T18:30:31;6.20;;;2.53;;
69036;SDS011;58547;51.690;5.186;2022-07-18T18:32:57;11.52;;;3.25;;
69036;SDS011;58547;51.690;5.186;2022-07-18T18:35:24;6.63;;;3.00;;
69036;SDS011;58547;51.690;5.186;2022-07-18T18:37:50;5.35;;;2.88;;